sensor_id;sensor_type;location;lat;lon;timestamp;P1;durP1;ratioP1;P2;durP2;ratioP2
6420;SDS011;3243;50.958;7.012;2023-06-26T00:00:53;9.10;;;6.75;;
6420;SDS011;3243;50.958;7.012;2023-06-26T00:03:20;7.57;;;6.78;;
6420;SDS011;3243;50.958;7.012;2023-06-26T00:05:47;7.15;;;6.45;;
6420;SDS011;3243;50.958;7.012;2023-06-26T00:08:13;8.50;;;7.15;;
6420;SDS011;3243;50.958;7.012;2023-06-26T00:10:40;6.97;;;6.28;;
6420;SDS011;3243;50.958;7.012;2023-06-26T00:13:07;6.93;;;6.22;;
6420;SDS011;3243;50.958;7.012;2023-06-26T00:15:34;13.65;;;6.53;;
6420;SDS011;3243;50.958;7.012;2023-06-26T00:18:01;7.38;;;6.45;;
6420;SDS011;3243;50.958;7.012;2023-06-26T00:20:30;6.57;;;5.93;;
6420;SDS011;3243;50.958;7.012;2023-06-26T00:23:00;7.43;;;6.72;;
6420;SDS011;3243;50.958;7.012;2023-06-26T00:25:27;9.15;;;7.35;;
6420;SDS011;3243;50.958;7.012;2023-06-26T00:27:54;7.00;;;6.30;;
6420;SDS011;3243;50.958;7.012;2023-06-26T00:30:21;7.72;;;6.40;;
6420;SDS011;3243;50.958;7.012;2023-06-26T00:32:48;7.65;;;6.40;;
6420;SDS011;3243;50.958;7.012;2023-06-26T00:35:16;7.15;;;6.45;;
6420;SDS011;3243;50.958;7.012;2023-06-26T00:37:43;8.63;;;6.10;;
6420;SDS011;3243;50.958;7.012;2023-06-26T00:40:10;7.70;;;6.80;;
6420;SDS011;3243;50.958;7.012;2023-06-26T00:42:37;7.45;;;6.65;;
6420;SDS011;3243;50.958;7.012;2023-06-26T00:45:04;6.85;;;6.13;;
6420;SDS011;3243;50.958;7.012;2023-06-26T00:47:31;7.55;;;6.20;;
6420;SDS011;3243;50.958;7.012;2023-06-26T00:49:59;6.80;;;6.10;;
6420;SDS011;3243;50.958;7.012;2023-06-26T00:52:26;7.53;;;6.82;;
6420;SDS011;3243;50.958;7.012;2023-06-26T00:54:53;7.10;;;6.22;;
6420;SDS011;3243;50.958;7.012;2023-06-26T00:57:20;7.85;;;6.90;;
6420;SDS011;3243;50.958;7.012;2023-06-26T00:59:47;6.80;;;6.13;;
6420;SDS011;3243;50.958;7.012;2023-06-26T01:02:15;6.80;;;6.10;;
6420;SDS011;3243;50.958;7.012;2023-06-26T01:04:47;8.80;;;6.45;;
6420;SDS011;3243;50.958;7.012;2023-06-26T01:07:15;8.50;;;7.00;;
6420;SDS011;3243;50.958;7.012;2023-06-26T01:09:48;7.72;;;6.93;;
6420;SDS011;3243;50.958;7.012;2023-06-26T01:12:15;7.78;;;6.60;;
6420;SDS011;3243;50.958;7.012;2023-06-26T01:14:42;7.78;;;6.97;;
6420;SDS011;3243;50.958;7.012;2023-06-26T01:17:09;9.15;;;6.93;;
6420;SDS011;3243;50.958;7.012;2023-06-26T01:19:41;9.45;;;6.72;;
6420;SDS011;3243;50.958;7.012;2023-06-26T01:22:14;10.93;;;7.18;;
6420;SDS011;3243;50.958;7.012;2023-06-26T01:24:53;8.65;;;6.68;;
6420;SDS011;3243;50.958;7.012;2023-06-26T01:27:23;7.35;;;6.45;;
6420;SDS011;3243;50.958;7.012;2023-06-26T01:29:52;7.18;;;6.07;;
6420;SDS011;3243;50.958;7.012;2023-06-26T01:32:20;8.38;;;6.57;;
6420;SDS011;3243;50.958;7.012;2023-06-26T01:34:48;7.40;;;6.60;;
6420;SDS011;3243;50.958;7.012;2023-06-26T01:37:17;8.13;;;6.47;;
6420;SDS011;3243;50.958;7.012;2023-06-26T01:39:45;8.70;;;6.22;;
6420;SDS011;3243;50.958;7.012;2023-06-26T01:42:11;7.05;;;6.13;;
6420;SDS011;3243;50.958;7.012;2023-06-26T01:44:40;8.65;;;6.22;;
6420;SDS011;3243;50.958;7.012;2023-06-26T01:47:12;7.35;;;6.65;;
6420;SDS011;3243;50.958;7.012;2023-06-26T01:57:42;7.32;;;6.15;;
6420;SDS011;3243;50.958;7.012;2023-06-26T02:00:13;6.88;;;6.18;;
6420;SDS011;3243;50.958;7.012;2023-06-26T02:02:44;7.68;;;6.13;;
6420;SDS011;3243;50.958;7.012;2023-06-26T02:05:11;6.70;;;6.10;;
6420;SDS011;3243;50.958;7.012;2023-06-26T02:07:39;8.15;;;5.45;;
6420;SDS011;3243;50.958;7.012;2023-06-26T02:10:06;6.90;;;5.70;;
6420;SDS011;3243;50.958;7.012;2023-06-26T02:12:34;9.02;;;6.00;;
6420;SDS011;3243;50.958;7.012;2023-06-26T02:15:02;7.40;;;6.63;;
6420;SDS011;3243;50.958;7.012;2023-06-26T02:17:30;6.82;;;6.13;;
6420;SDS011;3243;50.958;7.012;2023-06-26T02:19:57;7.20;;;6.30;;
6420;SDS011;3243;50.958;7.012;2023-06-26T02:22:24;8.05;;;6.15;;
6420;SDS011;3243;50.958;7.012;2023-06-26T02:24:51;7.20;;;6.50;;
6420;SDS011;3243;50.958;7.012;2023-06-26T02:27:18;9.02;;;6.43;;
6420;SDS011;3243;50.958;7.012;2023-06-26T02:29:45;8.25;;;6.53;;
6420;SDS011;3243;50.958;7.012;2023-06-26T02:32:11;8.02;;;6.05;;
6420;SDS011;3243;50.958;7.012;2023-06-26T02:34:38;7.47;;;6.55;;
6420;SDS011;3243;50.958;7.012;2023-06-26T02:37:05;8.00;;;6.50;;
6420;SDS011;3243;50.958;7.012;2023-06-26T02:39:34;8.77;;;6.70;;
6420;SDS011;3243;50.958;7.012;2023-06-26T02:42:00;6.97;;;5.93;;
6420;SDS011;3243;50.958;7.012;2023-06-26T02:44:28;9.70;;;6.70;;
6420;SDS011;3243;50.958;7.012;2023-06-26T02:46:55;7.38;;;6.43;;
6420;SDS011;3243;50.958;7.012;2023-06-26T02:49:22;7.93;;;7.13;;
6420;SDS011;3243;50.958;7.012;2023-06-26T02:51:49;7.95;;;7.15;;
6420;SDS011;3243;50.958;7.012;2023-06-26T02:54:15;7.60;;;6.32;;
6420;SDS011;3243;50.958;7.012;2023-06-26T02:56:45;7.00;;;6.28;;
6420;SDS011;3243;50.958;7.012;2023-06-26T02:59:15;7.57;;;6.40;;
6420;SDS011;3243;50.958;7.012;2023-06-26T03:01:42;9.63;;;6.88;;
6420;SDS011;3243;50.958;7.012;2023-06-26T03:04:08;7.15;;;6.45;;
6420;SDS011;3243;50.958;7.012;2023-06-26T03:06:36;7.70;;;6.90;;
6420;SDS011;3243;50.958;7.012;2023-06-26T03:09:04;8.10;;;6.88;;
6420;SDS011;3243;50.958;7.012;2023-06-26T03:11:30;8.90;;;6.95;;
6420;SDS011;3243;50.958;7.012;2023-06-26T03:13:57;7.25;;;6.15;;
6420;SDS011;3243;50.958;7.012;2023-06-26T03:16:24;9.50;;;6.95;;
6420;SDS011;3243;50.958;7.012;2023-06-26T03:18:51;8.93;;;6.97;;
6420;SDS011;3243;50.958;7.012;2023-06-26T03:21:18;7.63;;;6.75;;
6420;SDS011;3243;50.958;7.012;2023-06-26T03:23:46;8.45;;;6.78;;
6420;SDS011;3243;50.958;7.012;2023-06-26T03:26:13;8.82;;;6.95;;
6420;SDS011;3243;50.958;7.012;2023-06-26T03:28:40;7.82;;;6.63;;
6420;SDS011;3243;50.958;7.012;2023-06-26T03:31:10;8.75;;;6.55;;
6420;SDS011;3243;50.958;7.012;2023-06-26T03:33:38;8.35;;;6.88;;
6420;SDS011;3243;50.958;7.012;2023-06-26T03:36:04;8.23;;;6.60;;
6420;SDS011;3243;50.958;7.012;2023-06-26T03:38:32;9.65;;;6.78;;
6420;SDS011;3243;50.958;7.012;2023-06-26T03:40:59;8.82;;;6.40;;
6420;SDS011;3243;50.958;7.012;2023-06-26T03:43:26;9.07;;;7.10;;
6420;SDS011;3243;50.958;7.012;2023-06-26T03:45:53;7.80;;;6.35;;
6420;SDS011;3243;50.958;7.012;2023-06-26T03:48:20;6.78;;;6.07;;
6420;SDS011;3243;50.958;7.012;2023-06-26T03:50:47;7.05;;;6.07;;
6420;SDS011;3243;50.958;7.012;2023-06-26T03:53:14;6.63;;;5.95;;
6420;SDS011;3243;50.958;7.012;2023-06-26T03:55:41;7.10;;;5.65;;
6420;SDS011;3243;50.958;7.012;2023-06-26T03:58:08;7.05;;;5.50;;
6420;SDS011;3243;50.958;7.012;2023-06-26T04:00:35;7.32;;;5.80;;
6420;SDS011;3243;50.958;7.012;2023-06-26T04:03:02;8.85;;;5.30;;
6420;SDS011;3243;50.958;7.012;2023-06-26T04:05:30;7.90;;;4.80;;
6420;SDS011;3243;50.958;7.012;2023-06-26T04:07:57;5.70;;;4.88;;
6420;SDS011;3243;50.958;7.012;2023-06-26T04:10:24;6.75;;;4.65;;
6420;SDS011;3243;50.958;7.012;2023-06-26T04:12:51;5.68;;;5.07;;
6420;SDS011;3243;50.958;7.012;2023-06-26T04:15:19;5.13;;;4.63;;
6420;SDS011;3243;50.958;7.012;2023-06-26T04:17:46;6.70;;;4.85;;
6420;SDS011;3243;50.958;7.012;2023-06-26T04:20:13;7.65;;;5.40;;
6420;SDS011;3243;50.958;7.012;2023-06-26T04:22:41;6.53;;;4.95;;
6420;SDS011;3243;50.958;7.012;2023-06-26T04:25:08;5.88;;;4.78;;
6420;SDS011;3243;50.958;7.012;2023-06-26T04:27:38;7.53;;;4.95;;
6420;SDS011;3243;50.958;7.012;2023-06-26T04:30:07;6.35;;;4.80;;
6420;SDS011;3243;50.958;7.012;2023-06-26T04:32:34;8.07;;;5.93;;
6420;SDS011;3243;50.958;7.012;2023-06-26T04:35:01;8.32;;;5.20;;
6420;SDS011;3243;50.958;7.012;2023-06-26T04:37:29;5.60;;;4.97;;
6420;SDS011;3243;50.958;7.012;2023-06-26T04:39:56;6.40;;;4.63;;
6420;SDS011;3243;50.958;7.012;2023-06-26T04:42:23;5.35;;;4.85;;
6420;SDS011;3243;50.958;7.012;2023-06-26T04:44:50;5.68;;;5.10;;
6420;SDS011;3243;50.958;7.012;2023-06-26T04:47:17;6.55;;;4.97;;
6420;SDS011;3243;50.958;7.012;2023-06-26T04:49:44;6.28;;;4.70;;
6420;SDS011;3243;50.958;7.012;2023-06-26T04:52:12;7.35;;;4.90;;
6420;SDS011;3243;50.958;7.012;2023-06-26T04:54:40;7.10;;;4.85;;
6420;SDS011;3243;50.958;7.012;2023-06-26T04:57:07;8.23;;;4.95;;
6420;SDS011;3243;50.958;7.012;2023-06-26T04:59:35;7.03;;;4.93;;
6420;SDS011;3243;50.958;7.012;2023-06-26T05:02:02;6.60;;;4.60;;
6420;SDS011;3243;50.958;7.012;2023-06-26T05:04:29;5.95;;;4.55;;
6420;SDS011;3243;50.958;7.012;2023-06-26T05:06:56;5.75;;;5.10;;
6420;SDS011;3243;50.958;7.012;2023-06-26T05:09:23;7.55;;;4.80;;
6420;SDS011;3243;50.958;7.012;2023-06-26T05:11:50;8.77;;;4.75;;
6420;SDS011;3243;50.958;7.012;2023-06-26T05:14:17;5.72;;;4.63;;
6420;SDS011;3243;50.958;7.012;2023-06-26T05:16:44;6.88;;;4.72;;
6420;SDS011;3243;50.958;7.012;2023-06-26T05:19:11;7.78;;;5.18;;
6420;SDS011;3243;50.958;7.012;2023-06-26T05:21:38;5.57;;;4.57;;
6420;SDS011;3243;50.958;7.012;2023-06-26T05:24:05;5.68;;;5.10;;
6420;SDS011;3243;50.958;7.012;2023-06-26T05:26:33;7.50;;;4.65;;
6420;SDS011;3243;50.958;7.012;2023-06-26T05:29:00;5.57;;;4.63;;
6420;SDS011;3243;50.958;7.012;2023-06-26T05:31:27;8.75;;;4.90;;
6420;SDS011;3243;50.958;7.012;2023-06-26T05:33:55;6.93;;;4.57;;
6420;SDS011;3243;50.958;7.012;2023-06-26T05:36:23;6.30;;;4.65;;
6420;SDS011;3243;50.958;7.012;2023-06-26T05:38:51;7.32;;;4.72;;
6420;SDS011;3243;50.958;7.012;2023-06-26T05:41:18;6.88;;;4.60;;
6420;SDS011;3243;50.958;7.012;2023-06-26T05:43:45;8.00;;;4.45;;
6420;SDS011;3243;50.958;7.012;2023-06-26T05:46:12;5.40;;;4.63;;
6420;SDS011;3243;50.958;7.012;2023-06-26T05:48:39;5.05;;;4.22;;
6420;SDS011;3243;50.958;7.012;2023-06-26T05:51:06;9.32;;;4.55;;
6420;SDS011;3243;50.958;7.012;2023-06-26T05:53:33;5.90;;;4.30;;
6420;SDS011;3243;50.958;7.012;2023-06-26T05:56:00;6.10;;;4.25;;
6420;SDS011;3243;50.958;7.012;2023-06-26T05:58:27;4.78;;;4.25;;
6420;SDS011;3243;50.958;7.012;2023-06-26T06:00:54;5.70;;;4.15;;
6420;SDS011;3243;50.958;7.012;2023-06-26T06:03:21;7.30;;;4.97;;
6420;SDS011;3243;50.958;7.012;2023-06-26T06:05:49;5.00;;;4.35;;
6420;SDS011;3243;50.958;7.012;2023-06-26T06:08:16;5.50;;;4.40;;
6420;SDS011;3243;50.958;7.012;2023-06-26T06:10:43;6.28;;;4.70;;
6420;SDS011;3243;50.958;7.012;2023-06-26T06:13:13;6.85;;;4.55;;
6420;SDS011;3243;50.958;7.012;2023-06-26T06:15:40;6.95;;;4.65;;
6420;SDS011;3243;50.958;7.012;2023-06-26T06:18:07;7.03;;;4.50;;
6420;SDS011;3243;50.958;7.012;2023-06-26T06:20:35;8.02;;;4.00;;
6420;SDS011;3243;50.958;7.012;2023-06-26T06:23:02;7.95;;;4.03;;
6420;SDS011;3243;50.958;7.012;2023-06-26T06:25:29;8.00;;;4.57;;
6420;SDS011;3243;50.958;7.012;2023-06-26T06:27:56;5.93;;;4.18;;
6420;SDS011;3243;50.958;7.012;2023-06-26T06:30:23;8.25;;;5.63;;
6420;SDS011;3243;50.958;7.012;2023-06-26T06:33:09;8.75;;;5.20;;
6420;SDS011;3243;50.958;7.012;2023-06-26T06:35:36;6.70;;;4.35;;
6420;SDS011;3243;50.958;7.012;2023-06-26T06:38:03;6.18;;;4.10;;
6420;SDS011;3243;50.958;7.012;2023-06-26T06:40:29;8.00;;;4.22;;
6420;SDS011;3243;50.958;7.012;2023-06-26T06:42:56;8.30;;;4.93;;
6420;SDS011;3243;50.958;7.012;2023-06-26T06:45:23;9.48;;;4.93;;
6420;SDS011;3243;50.958;7.012;2023-06-26T06:47:50;11.43;;;4.90;;
6420;SDS011;3243;50.958;7.012;2023-06-26T06:50:17;7.38;;;4.60;;
6420;SDS011;3243;50.958;7.012;2023-06-26T06:52:44;7.13;;;4.35;;
6420;SDS011;3243;50.958;7.012;2023-06-26T06:55:12;11.10;;;4.80;;
6420;SDS011;3243;50.958;7.012;2023-06-26T06:57:39;9.32;;;4.15;;
6420;SDS011;3243;50.958;7.012;2023-06-26T07:00:10;7.85;;;4.28;;
6420;SDS011;3243;50.958;7.012;2023-06-26T07:02:38;7.20;;;4.68;;
6420;SDS011;3243;50.958;7.012;2023-06-26T07:05:07;5.18;;;4.10;;
6420;SDS011;3243;50.958;7.012;2023-06-26T07:07:34;8.15;;;4.43;;
6420;SDS011;3243;50.958;7.012;2023-06-26T07:10:08;7.03;;;4.70;;
6420;SDS011;3243;50.958;7.012;2023-06-26T07:12:36;9.38;;;4.78;;
6420;SDS011;3243;50.958;7.012;2023-06-26T07:15:04;8.32;;;4.68;;
6420;SDS011;3243;50.958;7.012;2023-06-26T07:17:32;7.78;;;4.30;;
6420;SDS011;3243;50.958;7.012;2023-06-26T07:20:00;6.45;;;4.30;;
6420;SDS011;3243;50.958;7.012;2023-06-26T07:22:30;5.85;;;4.32;;
6420;SDS011;3243;50.958;7.012;2023-06-26T07:24:57;9.52;;;4.40;;
6420;SDS011;3243;50.958;7.012;2023-06-26T07:27:24;7.63;;;4.22;;
6420;SDS011;3243;50.958;7.012;2023-06-26T07:29:51;8.43;;;4.78;;
6420;SDS011;3243;50.958;7.012;2023-06-26T07:32:18;10.85;;;5.55;;
6420;SDS011;3243;50.958;7.012;2023-06-26T07:34:44;10.25;;;5.97;;
6420;SDS011;3243;50.958;7.012;2023-06-26T07:37:11;12.27;;;6.80;;
6420;SDS011;3243;50.958;7.012;2023-06-26T07:39:38;9.75;;;7.38;;
6420;SDS011;3243;50.958;7.012;2023-06-26T07:42:05;13.95;;;8.30;;
6420;SDS011;3243;50.958;7.012;2023-06-26T07:44:32;9.65;;;7.32;;
6420;SDS011;3243;50.958;7.012;2023-06-26T07:46:58;13.77;;;8.77;;
6420;SDS011;3243;50.958;7.012;2023-06-26T07:49:25;11.43;;;9.13;;
6420;SDS011;3243;50.958;7.012;2023-06-26T07:51:52;11.32;;;9.68;;
6420;SDS011;3243;50.958;7.012;2023-06-26T07:54:19;8.90;;;6.93;;
6420;SDS011;3243;50.958;7.012;2023-06-26T07:56:55;9.82;;;5.28;;
6420;SDS011;3243;50.958;7.012;2023-06-26T07:59:23;11.18;;;5.65;;
6420;SDS011;3243;50.958;7.012;2023-06-26T08:01:51;7.10;;;4.50;;
6420;SDS011;3243;50.958;7.012;2023-06-26T08:04:19;9.35;;;4.75;;
6420;SDS011;3243;50.958;7.012;2023-06-26T08:06:48;6.53;;;5.00;;
6420;SDS011;3243;50.958;7.012;2023-06-26T08:09:18;7.93;;;4.72;;
6420;SDS011;3243;50.958;7.012;2023-06-26T08:11:46;7.20;;;4.03;;
6420;SDS011;3243;50.958;7.012;2023-06-26T08:14:13;8.35;;;3.88;;
6420;SDS011;3243;50.958;7.012;2023-06-26T08:16:40;9.77;;;4.80;;
6420;SDS011;3243;50.958;7.012;2023-06-26T08:19:08;7.63;;;4.00;;
6420;SDS011;3243;50.958;7.012;2023-06-26T08:21:34;7.10;;;3.88;;
6420;SDS011;3243;50.958;7.012;2023-06-26T08:24:02;7.93;;;4.55;;
6420;SDS011;3243;50.958;7.012;2023-06-26T08:26:29;7.75;;;4.40;;
6420;SDS011;3243;50.958;7.012;2023-06-26T08:28:55;7.28;;;4.70;;
6420;SDS011;3243;50.958;7.012;2023-06-26T08:31:22;9.93;;;5.05;;
6420;SDS011;3243;50.958;7.012;2023-06-26T08:33:49;8.25;;;4.63;;
6420;SDS011;3243;50.958;7.012;2023-06-26T08:36:16;8.55;;;5.00;;
6420;SDS011;3243;50.958;7.012;2023-06-26T08:38:44;10.13;;;5.00;;
6420;SDS011;3243;50.958;7.012;2023-06-26T08:41:11;11.65;;;4.75;;
6420;SDS011;3243;50.958;7.012;2023-06-26T08:43:38;10.48;;;4.90;;
6420;SDS011;3243;50.958;7.012;2023-06-26T08:46:05;8.57;;;4.70;;
6420;SDS011;3243;50.958;7.012;2023-06-26T08:48:32;8.90;;;4.90;;
6420;SDS011;3243;50.958;7.012;2023-06-26T08:51:09;11.48;;;4.70;;
6420;SDS011;3243;50.958;7.012;2023-06-26T08:53:52;11.93;;;5.88;;
6420;SDS011;3243;50.958;7.012;2023-06-26T08:56:25;9.88;;;6.00;;
6420;SDS011;3243;50.958;7.012;2023-06-26T08:58:58;10.20;;;6.35;;
6420;SDS011;3243;50.958;7.012;2023-06-26T09:01:25;9.73;;;5.00;;
6420;SDS011;3243;50.958;7.012;2023-06-26T09:03:52;7.78;;;4.82;;
6420;SDS011;3243;50.958;7.012;2023-06-26T09:06:18;8.73;;;4.70;;
6420;SDS011;3243;50.958;7.012;2023-06-26T09:08:45;8.05;;;5.03;;
6420;SDS011;3243;50.958;7.012;2023-06-26T09:11:12;8.60;;;5.13;;
6420;SDS011;3243;50.958;7.012;2023-06-26T09:13:39;9.48;;;4.57;;
6420;SDS011;3243;50.958;7.012;2023-06-26T09:16:07;8.02;;;4.65;;
6420;SDS011;3243;50.958;7.012;2023-06-26T09:18:34;9.38;;;4.90;;
6420;SDS011;3243;50.958;7.012;2023-06-26T09:21:07;8.90;;;4.68;;
6420;SDS011;3243;50.958;7.012;2023-06-26T09:23:35;7.43;;;4.18;;
6420;SDS011;3243;50.958;7.012;2023-06-26T09:26:03;10.73;;;4.28;;
6420;SDS011;3243;50.958;7.012;2023-06-26T09:28:34;9.52;;;4.65;;
6420;SDS011;3243;50.958;7.012;2023-06-26T09:31:02;8.80;;;4.80;;
6420;SDS011;3243;50.958;7.012;2023-06-26T09:33:34;7.63;;;4.22;;
6420;SDS011;3243;50.958;7.012;2023-06-26T09:36:06;7.07;;;3.78;;
6420;SDS011;3243;50.958;7.012;2023-06-26T09:38:35;10.70;;;4.03;;
6420;SDS011;3243;50.958;7.012;2023-06-26T09:41:03;13.07;;;4.53;;
6420;SDS011;3243;50.958;7.012;2023-06-26T09:43:30;9.68;;;4.00;;
6420;SDS011;3243;50.958;7.012;2023-06-26T09:45:58;7.68;;;4.28;;
6420;SDS011;3243;50.958;7.012;2023-06-26T09:48:26;9.13;;;3.67;;
6420;SDS011;3243;50.958;7.012;2023-06-26T09:50:55;9.50;;;3.92;;
6420;SDS011;3243;50.958;7.012;2023-06-26T09:53:38;8.43;;;3.78;;
6420;SDS011;3243;50.958;7.012;2023-06-26T09:56:06;9.90;;;4.15;;
6420;SDS011;3243;50.958;7.012;2023-06-26T09:58:33;11.23;;;4.25;;
6420;SDS011;3243;50.958;7.012;2023-06-26T10:01:01;10.20;;;4.10;;
6420;SDS011;3243;50.958;7.012;2023-06-26T10:03:29;9.68;;;3.75;;
6420;SDS011;3243;50.958;7.012;2023-06-26T10:05:56;9.38;;;4.28;;
6420;SDS011;3243;50.958;7.012;2023-06-26T10:08:24;10.63;;;4.20;;
6420;SDS011;3243;50.958;7.012;2023-06-26T10:10:51;7.82;;;3.78;;
6420;SDS011;3243;50.958;7.012;2023-06-26T10:13:22;6.90;;;3.70;;
6420;SDS011;3243;50.958;7.012;2023-06-26T10:15:53;6.60;;;3.80;;
6420;SDS011;3243;50.958;7.012;2023-06-26T10:18:21;8.40;;;3.85;;
6420;SDS011;3243;50.958;7.012;2023-06-26T10:20:50;8.18;;;3.40;;
6420;SDS011;3243;50.958;7.012;2023-06-26T10:23:19;8.85;;;3.85;;
6420;SDS011;3243;50.958;7.012;2023-06-26T10:25:48;9.52;;;3.83;;
6420;SDS011;3243;50.958;7.012;2023-06-26T10:28:17;10.23;;;3.40;;
6420;SDS011;3243;50.958;7.012;2023-06-26T10:30:46;6.63;;;3.30;;
6420;SDS011;3243;50.958;7.012;2023-06-26T10:33:17;7.88;;;3.55;;
6420;SDS011;3243;50.958;7.012;2023-06-26T10:35:45;9.57;;;3.80;;
6420;SDS011;3243;50.958;7.012;2023-06-26T10:38:12;8.70;;;3.75;;
6420;SDS011;3243;50.958;7.012;2023-06-26T10:40:40;7.45;;;3.60;;
6420;SDS011;3243;50.958;7.012;2023-06-26T10:43:18;5.75;;;3.25;;
6420;SDS011;3243;50.958;7.012;2023-06-26T10:45:45;7.50;;;3.10;;
6420;SDS011;3243;50.958;7.012;2023-06-26T10:48:20;8.80;;;3.22;;
6420;SDS011;3243;50.958;7.012;2023-06-26T10:50:49;7.25;;;2.80;;
6420;SDS011;3243;50.958;7.012;2023-06-26T10:55:49;5.20;;;3.00;;
6420;SDS011;3243;50.958;7.012;2023-06-26T11:04:10;5.05;;;3.20;;
6420;SDS011;3243;50.958;7.012;2023-06-26T11:06:37;6.88;;;2.92;;
6420;SDS011;3243;50.958;7.012;2023-06-26T11:14:18;6.20;;;2.83;;
6420;SDS011;3243;50.958;7.012;2023-06-26T11:16:46;7.40;;;2.90;;
6420;SDS011;3243;50.958;7.012;2023-06-26T11:19:13;5.25;;;2.80;;
6420;SDS011;3243;50.958;7.012;2023-06-26T11:21:41;6.00;;;3.15;;
6420;SDS011;3243;50.958;7.012;2023-06-26T11:24:09;6.50;;;2.95;;
6420;SDS011;3243;50.958;7.012;2023-06-26T11:26:38;5.68;;;2.78;;
6420;SDS011;3243;50.958;7.012;2023-06-26T11:29:05;9.48;;;4.03;;
6420;SDS011;3243;50.958;7.012;2023-06-26T11:31:33;7.20;;;3.10;;
6420;SDS011;3243;50.958;7.012;2023-06-26T11:34:11;6.88;;;2.92;;
6420;SDS011;3243;50.958;7.012;2023-06-26T11:36:39;5.78;;;2.83;;
6420;SDS011;3243;50.958;7.012;2023-06-26T11:39:09;6.03;;;3.10;;
6420;SDS011;3243;50.958;7.012;2023-06-26T11:41:36;6.95;;;3.08;;
6420;SDS011;3243;50.958;7.012;2023-06-26T11:44:09;6.82;;;2.60;;
6420;SDS011;3243;50.958;7.012;2023-06-26T11:46:37;5.72;;;3.03;;
6420;SDS011;3243;50.958;7.012;2023-06-26T11:49:07;8.40;;;3.30;;
6420;SDS011;3243;50.958;7.012;2023-06-26T11:51:34;4.63;;;2.70;;
6420;SDS011;3243;50.958;7.012;2023-06-26T11:54:03;4.05;;;2.50;;
6420;SDS011;3243;50.958;7.012;2023-06-26T11:56:30;4.60;;;2.53;;
6420;SDS011;3243;50.958;7.012;2023-06-26T11:59:01;6.03;;;2.67;;
6420;SDS011;3243;50.958;7.012;2023-06-26T12:01:40;6.90;;;3.15;;
6420;SDS011;3243;50.958;7.012;2023-06-26T12:04:11;7.10;;;3.80;;
6420;SDS011;3243;50.958;7.012;2023-06-26T12:06:42;6.28;;;3.17;;
6420;SDS011;3243;50.958;7.012;2023-06-26T12:09:11;7.07;;;3.40;;
6420;SDS011;3243;50.958;7.012;2023-06-26T12:11:40;8.15;;;2.40;;
6420;SDS011;3243;50.958;7.012;2023-06-26T12:14:09;5.90;;;2.65;;
6420;SDS011;3243;50.958;7.012;2023-06-26T12:16:37;4.88;;;2.50;;
6420;SDS011;3243;50.958;7.012;2023-06-26T12:19:05;5.10;;;2.60;;
6420;SDS011;3243;50.958;7.012;2023-06-26T12:24:04;4.78;;;2.40;;
6420;SDS011;3243;50.958;7.012;2023-06-26T12:26:31;9.48;;;3.03;;
6420;SDS011;3243;50.958;7.012;2023-06-26T12:29:06;5.55;;;2.58;;
6420;SDS011;3243;50.958;7.012;2023-06-26T12:31:52;5.03;;;2.20;;
6420;SDS011;3243;50.958;7.012;2023-06-26T12:34:20;7.05;;;2.60;;
6420;SDS011;3243;50.958;7.012;2023-06-26T12:36:51;9.50;;;2.60;;
6420;SDS011;3243;50.958;7.012;2023-06-26T12:39:19;7.68;;;2.50;;
6420;SDS011;3243;50.958;7.012;2023-06-26T12:44:27;8.43;;;2.70;;
6420;SDS011;3243;50.958;7.012;2023-06-26T12:47:01;9.90;;;2.47;;
6420;SDS011;3243;50.958;7.012;2023-06-26T12:49:38;9.70;;;2.80;;
6420;SDS011;3243;50.958;7.012;2023-06-26T12:52:08;8.50;;;3.90;;
6420;SDS011;3243;50.958;7.012;2023-06-26T12:54:39;10.65;;;3.20;;
6420;SDS011;3243;50.958;7.012;2023-06-26T12:57:07;8.07;;;2.40;;
6420;SDS011;3243;50.958;7.012;2023-06-26T12:59:36;5.40;;;2.70;;
6420;SDS011;3243;50.958;7.012;2023-06-26T13:02:04;12.32;;;3.00;;
6420;SDS011;3243;50.958;7.012;2023-06-26T13:04:31;12.88;;;2.20;;
6420;SDS011;3243;50.958;7.012;2023-06-26T13:06:59;6.10;;;1.98;;
6420;SDS011;3243;50.958;7.012;2023-06-26T13:09:26;3.67;;;2.08;;
6420;SDS011;3243;50.958;7.012;2023-06-26T13:11:54;4.88;;;2.10;;
6420;SDS011;3243;50.958;7.012;2023-06-26T13:14:21;8.63;;;2.20;;
6420;SDS011;3243;50.958;7.012;2023-06-26T13:16:48;6.65;;;2.30;;
6420;SDS011;3243;50.958;7.012;2023-06-26T13:19:15;8.55;;;2.00;;
6420;SDS011;3243;50.958;7.012;2023-06-26T13:21:42;10.00;;;2.40;;
6420;SDS011;3243;50.958;7.012;2023-06-26T13:24:09;9.65;;;2.30;;
6420;SDS011;3243;50.958;7.012;2023-06-26T13:26:36;8.27;;;2.58;;
6420;SDS011;3243;50.958;7.012;2023-06-26T13:29:04;9.18;;;2.80;;
6420;SDS011;3243;50.958;7.012;2023-06-26T13:31:31;7.93;;;2.65;;
6420;SDS011;3243;50.958;7.012;2023-06-26T13:33:59;6.88;;;2.20;;
6420;SDS011;3243;50.958;7.012;2023-06-26T13:36:26;7.03;;;2.30;;
6420;SDS011;3243;50.958;7.012;2023-06-26T13:38:54;4.55;;;2.17;;
6420;SDS011;3243;50.958;7.012;2023-06-26T13:41:24;8.55;;;2.05;;
6420;SDS011;3243;50.958;7.012;2023-06-26T13:43:51;9.82;;;2.50;;
6420;SDS011;3243;50.958;7.012;2023-06-26T13:46:20;8.80;;;2.25;;
6420;SDS011;3243;50.958;7.012;2023-06-26T13:48:48;7.05;;;2.10;;
6420;SDS011;3243;50.958;7.012;2023-06-26T13:51:15;5.85;;;2.33;;
6420;SDS011;3243;50.958;7.012;2023-06-26T13:53:42;6.47;;;2.50;;
6420;SDS011;3243;50.958;7.012;2023-06-26T13:56:08;11.55;;;3.60;;
6420;SDS011;3243;50.958;7.012;2023-06-26T13:58:37;7.47;;;2.45;;
6420;SDS011;3243;50.958;7.012;2023-06-26T14:01:04;7.28;;;2.50;;
6420;SDS011;3243;50.958;7.012;2023-06-26T14:03:32;6.70;;;1.75;;
6420;SDS011;3243;50.958;7.012;2023-06-26T14:05:59;7.85;;;2.30;;
6420;SDS011;3243;50.958;7.012;2023-06-26T14:08:27;6.22;;;2.00;;
6420;SDS011;3243;50.958;7.012;2023-06-26T14:10:54;4.32;;;2.05;;
6420;SDS011;3243;50.958;7.012;2023-06-26T14:13:21;6.50;;;1.90;;
6420;SDS011;3243;50.958;7.012;2023-06-26T14:15:49;7.93;;;1.92;;
6420;SDS011;3243;50.958;7.012;2023-06-26T14:18:20;5.70;;;1.65;;
6420;SDS011;3243;50.958;7.012;2023-06-26T14:20:49;7.18;;;2.15;;
6420;SDS011;3243;50.958;7.012;2023-06-26T14:23:16;4.25;;;1.70;;
6420;SDS011;3243;50.958;7.012;2023-06-26T14:25:43;3.38;;;2.30;;
6420;SDS011;3243;50.958;7.012;2023-06-26T14:28:14;5.40;;;1.70;;
6420;SDS011;3243;50.958;7.012;2023-06-26T14:30:41;5.22;;;1.95;;
6420;SDS011;3243;50.958;7.012;2023-06-26T14:33:09;11.23;;;2.15;;
6420;SDS011;3243;50.958;7.012;2023-06-26T14:35:36;4.32;;;2.10;;
6420;SDS011;3243;50.958;7.012;2023-06-26T14:38:03;11.25;;;2.33;;
6420;SDS011;3243;50.958;7.012;2023-06-26T14:40:31;4.85;;;1.70;;
6420;SDS011;3243;50.958;7.012;2023-06-26T14:42:58;7.25;;;1.73;;
6420;SDS011;3243;50.958;7.012;2023-06-26T14:45:25;5.22;;;2.03;;
6420;SDS011;3243;50.958;7.012;2023-06-26T14:47:53;12.50;;;2.20;;
6420;SDS011;3243;50.958;7.012;2023-06-26T14:50:20;11.90;;;2.60;;
6420;SDS011;3243;50.958;7.012;2023-06-26T14:52:47;8.25;;;2.38;;
6420;SDS011;3243;50.958;7.012;2023-06-26T14:55:14;8.73;;;2.28;;
6420;SDS011;3243;50.958;7.012;2023-06-26T14:57:40;16.15;;;2.30;;
6420;SDS011;3243;50.958;7.012;2023-06-26T15:00:08;9.55;;;2.40;;
6420;SDS011;3243;50.958;7.012;2023-06-26T15:02:35;8.00;;;2.28;;
6420;SDS011;3243;50.958;7.012;2023-06-26T15:05:04;6.28;;;1.80;;
6420;SDS011;3243;50.958;7.012;2023-06-26T15:07:31;6.82;;;3.53;;
6420;SDS011;3243;50.958;7.012;2023-06-26T15:09:59;7.18;;;4.35;;
6420;SDS011;3243;50.958;7.012;2023-06-26T15:12:26;11.30;;;7.00;;
6420;SDS011;3243;50.958;7.012;2023-06-26T15:14:53;12.35;;;5.10;;
6420;SDS011;3243;50.958;7.012;2023-06-26T15:17:21;10.52;;;3.92;;
6420;SDS011;3243;50.958;7.012;2023-06-26T15:19:48;9.63;;;4.25;;
6420;SDS011;3243;50.958;7.012;2023-06-26T15:22:17;11.82;;;2.53;;
6420;SDS011;3243;50.958;7.012;2023-06-26T15:24:44;6.53;;;2.30;;
6420;SDS011;3243;50.958;7.012;2023-06-26T15:27:11;4.93;;;2.20;;
6420;SDS011;3243;50.958;7.012;2023-06-26T15:29:39;8.35;;;2.33;;
6420;SDS011;3243;50.958;7.012;2023-06-26T15:32:07;9.35;;;2.03;;
6420;SDS011;3243;50.958;7.012;2023-06-26T15:34:34;5.20;;;2.10;;
6420;SDS011;3243;50.958;7.012;2023-06-26T15:37:00;3.00;;;1.90;;
6420;SDS011;3243;50.958;7.012;2023-06-26T15:39:27;6.60;;;1.80;;
6420;SDS011;3243;50.958;7.012;2023-06-26T15:41:54;4.82;;;1.60;;
6420;SDS011;3243;50.958;7.012;2023-06-26T15:44:21;2.75;;;1.80;;
6420;SDS011;3243;50.958;7.012;2023-06-26T15:46:48;5.05;;;1.80;;